HAKGR LSZB-EDNY
Flight info
| Callsign | HAKGR |
|---|---|
| Flight time | 0h 37m |
| Altitude | 19000 |
| Route | KONOL N871 DITON T163 ZUE |
| Aircraft | B350/L-SBGR/C |
Departure
| Time | 2026-04-27 13:46 |
|---|---|
| Airport | Bern Airport (LSZB) |
Arrival
| Time | 2026-04-27 14:24 |
|---|---|
| Airport | Bodensee Airport Friedrichshafen (EDNY) |
| Time | Latitude | Longitude | Altitude | Speed | Heading |
|---|---|---|---|---|---|
| 2026-04-27 13:30 | 46.91312 | 7.50023 | 1676 ft | 0 kts | 144° |
| 2026-04-27 13:43 | 46.91310 | 7.50026 | 1682 ft | 2 kts | 151° |
| 2026-04-27 13:43 | 46.91267 | 7.50036 | 1700 ft | 11 kts | 141° |
| 2026-04-27 13:43 | 46.91183 | 7.50141 | 1699 ft | 20 kts | 138° |
| 2026-04-27 13:43 | 46.91074 | 7.50280 | 1693 ft | 15 kts | 139° |
| 2026-04-27 13:44 | 46.91005 | 7.50355 | 1688 ft | 15 kts | 142° |
| 2026-04-27 13:44 | 46.90970 | 7.50401 | 1693 ft | 0 kts | 142° |
| 2026-04-27 13:44 | 46.90969 | 7.50401 | 1693 ft | 0 kts | 142° |
| 2026-04-27 13:44 | 46.90956 | 7.50411 | 1687 ft | 6 kts | 168° |
| 2026-04-27 13:45 | 46.90904 | 7.50352 | 1691 ft | 10 kts | 252° |
| 2026-04-27 13:45 | 46.90913 | 7.50324 | 1691 ft | 0 kts | 323° |
| 2026-04-27 13:45 | 46.90918 | 7.50319 | 1691 ft | 11 kts | 322° |
| 2026-04-27 13:46 | 46.91153 | 7.50031 | 1694 ft | 75 kts | 320° |
| 2026-04-27 13:46 | 46.91691 | 7.49385 | 1763 ft | 116 kts | 318° |
| 2026-04-27 13:46 | 46.92332 | 7.48613 | 2250 ft | 120 kts | 319° |
| 2026-04-27 13:46 | 46.92982 | 7.47795 | 2647 ft | 129 kts | 319° |
| 2026-04-27 13:47 | 46.93688 | 7.46899 | 3093 ft | 136 kts | 321° |
| 2026-04-27 13:47 | 46.94445 | 7.46054 | 3692 ft | 136 kts | 326° |
| 2026-04-27 13:47 | 46.95172 | 7.45132 | 4253 ft | 143 kts | 321° |
| 2026-04-27 13:47 | 46.95901 | 7.44146 | 4908 ft | 140 kts | 322° |
| 2026-04-27 13:48 | 46.96725 | 7.43460 | 5441 ft | 141 kts | 354° |
| 2026-04-27 13:48 | 46.97672 | 7.43895 | 5855 ft | 156 kts | 44° |
| 2026-04-27 13:48 | 46.98073 | 7.45396 | 6270 ft | 165 kts | 85° |
| 2026-04-27 13:48 | 46.98169 | 7.47064 | 6849 ft | 164 kts | 85° |
| 2026-04-27 13:49 | 46.98284 | 7.48747 | 7303 ft | 170 kts | 80° |
| 2026-04-27 13:49 | 46.98494 | 7.50527 | 7546 ft | 189 kts | 80° |
| 2026-04-27 13:49 | 46.98647 | 7.52560 | 7554 ft | 211 kts | 86° |
| 2026-04-27 13:49 | 46.98737 | 7.54761 | 7579 ft | 222 kts | 87° |
| 2026-04-27 13:50 | 46.98826 | 7.57050 | 7598 ft | 228 kts | 86° |
| 2026-04-27 13:50 | 46.98992 | 7.59361 | 7782 ft | 225 kts | 84° |
| 2026-04-27 13:50 | 46.99155 | 7.61618 | 8117 ft | 221 kts | 85° |
| 2026-04-27 13:50 | 46.99284 | 7.63812 | 8458 ft | 217 kts | 85° |
| 2026-04-27 13:51 | 46.99410 | 7.66006 | 8808 ft | 215 kts | 86° |
| 2026-04-27 13:51 | 46.99688 | 7.68146 | 9153 ft | 216 kts | 63° |
| 2026-04-27 13:51 | 47.00538 | 7.69971 | 9531 ft | 219 kts | 51° |
| 2026-04-27 13:51 | 47.01503 | 7.71744 | 9907 ft | 225 kts | 51° |
| 2026-04-27 13:52 | 47.02487 | 7.73546 | 10244 ft | 228 kts | 51° |
| 2026-04-27 13:52 | 47.03479 | 7.75381 | 10585 ft | 231 kts | 50° |
| 2026-04-27 13:52 | 47.04479 | 7.77240 | 10928 ft | 233 kts | 50° |
| 2026-04-27 13:52 | 47.05484 | 7.79105 | 11277 ft | 233 kts | 49° |
| 2026-04-27 13:53 | 47.07505 | 7.82857 | 11970 ft | 235 kts | 50° |
| 2026-04-27 13:53 | 47.08519 | 7.84745 | 12330 ft | 235 kts | 50° |
| 2026-04-27 13:53 | 47.09535 | 7.86632 | 12690 ft | 236 kts | 50° |
| 2026-04-27 13:54 | 47.10540 | 7.88505 | 13041 ft | 237 kts | 50° |
| 2026-04-27 13:54 | 47.11564 | 7.90411 | 13417 ft | 237 kts | 50° |
| 2026-04-27 13:54 | 47.12589 | 7.92322 | 13790 ft | 238 kts | 50° |
| 2026-04-27 13:54 | 47.13604 | 7.94241 | 14139 ft | 237 kts | 54° |
| 2026-04-27 13:55 | 47.14466 | 7.96289 | 14465 ft | 234 kts | 56° |
| 2026-04-27 13:55 | 47.15333 | 7.98295 | 14796 ft | 231 kts | 54° |
| 2026-04-27 13:55 | 47.16193 | 8.00285 | 15129 ft | 230 kts | 55° |
| 2026-04-27 13:55 | 47.17043 | 8.02274 | 15467 ft | 228 kts | 55° |
| 2026-04-27 13:56 | 47.17878 | 8.04233 | 15807 ft | 227 kts | 54° |
| 2026-04-27 13:56 | 47.18720 | 8.06210 | 16162 ft | 226 kts | 54° |
| 2026-04-27 13:56 | 47.19556 | 8.08169 | 16510 ft | 226 kts | 54° |
| 2026-04-27 13:56 | 47.20389 | 8.10128 | 16865 ft | 226 kts | 54° |
| 2026-04-27 13:57 | 47.21222 | 8.12083 | 17223 ft | 225 kts | 53° |
| 2026-04-27 13:57 | 47.22054 | 8.14038 | 17587 ft | 225 kts | 53° |
| 2026-04-27 13:57 | 47.22884 | 8.15992 | 17956 ft | 225 kts | 53° |
| 2026-04-27 13:57 | 47.23710 | 8.17938 | 18320 ft | 224 kts | 53° |
| 2026-04-27 13:58 | 47.24537 | 8.19881 | 18658 ft | 228 kts | 53° |
| 2026-04-27 13:58 | 47.25383 | 8.21877 | 18990 ft | 231 kts | 53° |
| 2026-04-27 13:58 | 47.26235 | 8.23889 | 19320 ft | 233 kts | 53° |
| 2026-04-27 13:58 | 47.27111 | 8.25954 | 19516 ft | 242 kts | 53° |
| 2026-04-27 13:59 | 47.28014 | 8.28090 | 19694 ft | 248 kts | 53° |
| 2026-04-27 13:59 | 47.28934 | 8.30269 | 19883 ft | 252 kts | 53° |
| 2026-04-27 13:59 | 47.29861 | 8.32465 | 20067 ft | 254 kts | 53° |
| 2026-04-27 13:59 | 47.30921 | 8.34523 | 20132 ft | 254 kts | 43° |
| 2026-04-27 14:00 | 47.32122 | 8.36473 | 20140 ft | 260 kts | 43° |
| 2026-04-27 14:00 | 47.33345 | 8.38486 | 20140 ft | 266 kts | 44° |
| 2026-04-27 14:00 | 47.34565 | 8.40518 | 20141 ft | 269 kts | 44° |
| 2026-04-27 14:00 | 47.35789 | 8.42563 | 20139 ft | 264 kts | 44° |
| 2026-04-27 14:01 | 47.36999 | 8.44575 | 20138 ft | 261 kts | 44° |
| 2026-04-27 14:01 | 47.38200 | 8.46567 | 20132 ft | 259 kts | 43° |
| 2026-04-27 14:01 | 47.39391 | 8.48548 | 20129 ft | 257 kts | 44° |
| 2026-04-27 14:01 | 47.40574 | 8.50518 | 20127 ft | 256 kts | 44° |
| 2026-04-27 14:02 | 47.41754 | 8.52486 | 20123 ft | 256 kts | 44° |
| 2026-04-27 14:02 | 47.42937 | 8.54458 | 20121 ft | 255 kts | 44° |
| 2026-04-27 14:02 | 47.44102 | 8.56403 | 20121 ft | 254 kts | 44° |
| 2026-04-27 14:02 | 47.45269 | 8.58352 | 20120 ft | 254 kts | 44° |
| 2026-04-27 14:03 | 47.46440 | 8.60309 | 20120 ft | 254 kts | 44° |
| 2026-04-27 14:03 | 47.47613 | 8.62271 | 20123 ft | 254 kts | 44° |
| 2026-04-27 14:03 | 47.48785 | 8.64233 | 20133 ft | 254 kts | 43° |
| 2026-04-27 14:03 | 47.49959 | 8.66199 | 20131 ft | 255 kts | 44° |
| 2026-04-27 14:04 | 47.51132 | 8.68167 | 20132 ft | 255 kts | 43° |
| 2026-04-27 14:04 | 47.52304 | 8.70133 | 20132 ft | 255 kts | 43° |
| 2026-04-27 14:04 | 47.53479 | 8.72105 | 20132 ft | 255 kts | 44° |
| 2026-04-27 14:04 | 47.54654 | 8.74079 | 20131 ft | 255 kts | 44° |
| 2026-04-27 14:05 | 47.55827 | 8.76053 | 20131 ft | 255 kts | 44° |
| 2026-04-27 14:05 | 47.56999 | 8.78025 | 20132 ft | 255 kts | 44° |
| 2026-04-27 14:05 | 47.58155 | 8.79971 | 20133 ft | 255 kts | 44° |
| 2026-04-27 14:05 | 47.59187 | 8.82101 | 20130 ft | 259 kts | 63° |
| 2026-04-27 14:06 | 47.59690 | 8.84714 | 20139 ft | 261 kts | 73° |
| 2026-04-27 14:06 | 47.60078 | 8.87313 | 20139 ft | 262 kts | 74° |
| 2026-04-27 14:06 | 47.60472 | 8.89957 | 20138 ft | 263 kts | 74° |
| 2026-04-27 14:06 | 47.60873 | 8.92575 | 20109 ft | 259 kts | 73° |
| 2026-04-27 14:07 | 47.61279 | 8.95203 | 19807 ft | 266 kts | 74° |
| 2026-04-27 14:07 | 47.61691 | 8.97904 | 19453 ft | 270 kts | 74° |
| 2026-04-27 14:07 | 47.62105 | 9.00634 | 19098 ft | 273 kts | 74° |
| 2026-04-27 14:07 | 47.62522 | 9.03392 | 18754 ft | 274 kts | 74° |
| 2026-04-27 14:08 | 47.62942 | 9.06154 | 18404 ft | 275 kts | 74° |
| 2026-04-27 14:08 | 47.63360 | 9.08918 | 18013 ft | 274 kts | 75° |
| 2026-04-27 14:08 | 47.63776 | 9.11675 | 17618 ft | 274 kts | 75° |
| 2026-04-27 14:08 | 47.64264 | 9.14385 | 17218 ft | 269 kts | 63° |
| 2026-04-27 14:09 | 47.65288 | 9.16644 | 16856 ft | 263 kts | 41° |
| 2026-04-27 14:09 | 47.66755 | 9.18183 | 16482 ft | 256 kts | 21° |
| 2026-04-27 14:09 | 47.68419 | 9.19071 | 16111 ft | 253 kts | 13° |
| 2026-04-27 14:09 | 47.70124 | 9.19725 | 15738 ft | 252 kts | 9° |
| 2026-04-27 14:10 | 47.71837 | 9.20272 | 15373 ft | 252 kts | 9° |
| 2026-04-27 14:10 | 47.73556 | 9.20761 | 15008 ft | 250 kts | 4° |
| 2026-04-27 14:10 | 47.75278 | 9.20974 | 14648 ft | 249 kts | 3° |
| 2026-04-27 14:10 | 47.77003 | 9.21311 | 14293 ft | 251 kts | 8° |
| 2026-04-27 14:11 | 47.78725 | 9.21833 | 13940 ft | 253 kts | 10° |
| 2026-04-27 14:11 | 47.80439 | 9.22376 | 13552 ft | 255 kts | 9° |
| 2026-04-27 14:11 | 47.82172 | 9.22958 | 13160 ft | 255 kts | 18° |
| 2026-04-27 14:11 | 47.83685 | 9.24367 | 12773 ft | 260 kts | 42° |
| 2026-04-27 14:12 | 47.84702 | 9.26590 | 12391 ft | 264 kts | 67° |
| 2026-04-27 14:12 | 47.85046 | 9.29257 | 12028 ft | 263 kts | 86° |
| 2026-04-27 14:12 | 47.85116 | 9.31982 | 11655 ft | 263 kts | 87° |
| 2026-04-27 14:12 | 47.85172 | 9.34700 | 11292 ft | 263 kts | 87° |
| 2026-04-27 14:13 | 47.85239 | 9.37417 | 10929 ft | 262 kts | 86° |
| 2026-04-27 14:13 | 47.85308 | 9.40080 | 10565 ft | 253 kts | 86° |
| 2026-04-27 14:13 | 47.85373 | 9.42667 | 10198 ft | 247 kts | 86° |
| 2026-04-27 14:13 | 47.85435 | 9.45201 | 9816 ft | 242 kts | 86° |
| 2026-04-27 14:14 | 47.85496 | 9.47687 | 9418 ft | 239 kts | 86° |
| 2026-04-27 14:14 | 47.85556 | 9.50144 | 9023 ft | 236 kts | 86° |
| 2026-04-27 14:14 | 47.85595 | 9.51759 | 8766 ft | 234 kts | 86° |
| 2026-04-27 14:14 | 47.85653 | 9.54178 | 8384 ft | 232 kts | 86° |
| 2026-04-27 14:15 | 47.85710 | 9.56572 | 8009 ft | 230 kts | 87° |
| 2026-04-27 14:15 | 47.85765 | 9.58945 | 7631 ft | 228 kts | 86° |
| 2026-04-27 14:15 | 47.85820 | 9.61300 | 7268 ft | 227 kts | 86° |
| 2026-04-27 14:15 | 47.85892 | 9.64407 | 6786 ft | 226 kts | 86° |
| 2026-04-27 14:16 | 47.85927 | 9.65986 | 6543 ft | 225 kts | 87° |
| 2026-04-27 14:16 | 47.85980 | 9.68310 | 6165 ft | 223 kts | 86° |
| 2026-04-27 14:16 | 47.86012 | 9.70580 | 5781 ft | 214 kts | 91° |
| 2026-04-27 14:16 | 47.85577 | 9.72656 | 5400 ft | 210 kts | 119° |
| 2026-04-27 14:17 | 47.84602 | 9.74175 | 5030 ft | 205 kts | 146° |
| 2026-04-27 14:17 | 47.83390 | 9.75214 | 4682 ft | 197 kts | 148° |
| 2026-04-27 14:17 | 47.82227 | 9.76190 | 4442 ft | 187 kts | 148° |
| 2026-04-27 14:17 | 47.81123 | 9.77121 | 4198 ft | 178 kts | 149° |
| 2026-04-27 14:18 | 47.80060 | 9.78021 | 3990 ft | 171 kts | 147° |
| 2026-04-27 14:18 | 47.79005 | 9.78629 | 3973 ft | 162 kts | 172° |
| 2026-04-27 14:18 | 47.77886 | 9.78273 | 3983 ft | 171 kts | 211° |
| 2026-04-27 14:18 | 47.77115 | 9.76940 | 3989 ft | 173 kts | 251° |
| 2026-04-27 14:19 | 47.76755 | 9.75191 | 3923 ft | 181 kts | 246° |
| 2026-04-27 14:19 | 47.76071 | 9.73630 | 3973 ft | 178 kts | 231° |
| 2026-04-27 14:19 | 47.75309 | 9.72219 | 3995 ft | 176 kts | 235° |
| 2026-04-27 14:19 | 47.74654 | 9.70740 | 3989 ft | 166 kts | 241° |
| 2026-04-27 14:20 | 47.74104 | 9.69345 | 3965 ft | 150 kts | 240° |
| 2026-04-27 14:20 | 47.73608 | 9.68026 | 3822 ft | 138 kts | 243° |
| 2026-04-27 14:20 | 47.73176 | 9.66865 | 3663 ft | 123 kts | 244° |
| 2026-04-27 14:20 | 47.72768 | 9.65727 | 3504 ft | 127 kts | 244° |
| 2026-04-27 14:21 | 47.72330 | 9.64562 | 3353 ft | 131 kts | 244° |
| 2026-04-27 14:21 | 47.71876 | 9.63409 | 3159 ft | 127 kts | 239° |
| 2026-04-27 14:21 | 47.71428 | 9.62316 | 3032 ft | 124 kts | 242° |
| 2026-04-27 14:21 | 47.71001 | 9.61189 | 2839 ft | 128 kts | 243° |
| 2026-04-27 14:22 | 47.70552 | 9.60039 | 2678 ft | 129 kts | 241° |
| 2026-04-27 14:22 | 47.70096 | 9.58868 | 2498 ft | 132 kts | 240° |
| 2026-04-27 14:22 | 47.69643 | 9.57675 | 2276 ft | 132 kts | 242° |
| 2026-04-27 14:22 | 47.69204 | 9.56503 | 2099 ft | 128 kts | 242° |
| 2026-04-27 14:23 | 47.68770 | 9.55378 | 1886 ft | 125 kts | 240° |
| 2026-04-27 14:23 | 47.68348 | 9.54291 | 1715 ft | 118 kts | 241° |
| 2026-04-27 14:23 | 47.67946 | 9.53252 | 1552 ft | 116 kts | 242° |
| 2026-04-27 14:23 | 47.67541 | 9.52201 | 1384 ft | 118 kts | 241° |
| 2026-04-27 14:24 | 47.67176 | 9.51253 | 1357 ft | 88 kts | 239° |
| 2026-04-27 14:24 | 47.67009 | 9.50827 | 1348 ft | 25 kts | 238° |
| 2026-04-27 14:24 | 47.66917 | 9.50702 | 1345 ft | 20 kts | 211° |
| 2026-04-27 14:24 | 47.66798 | 9.50602 | 1348 ft | 11 kts | 195° |
| 2026-04-27 14:25 | 47.66769 | 9.50690 | 1350 ft | 14 kts | 60° |
| 2026-04-27 14:25 | 47.66838 | 9.50866 | 1346 ft | 24 kts | 60° |
| 2026-04-27 14:25 | 47.66920 | 9.51073 | 1349 ft | 21 kts | 62° |
| 2026-04-27 14:25 | 47.66974 | 9.51216 | 1352 ft | 13 kts | 60° |
| 2026-04-27 14:26 | 47.67024 | 9.51340 | 1356 ft | 15 kts | 59° |
| 2026-04-27 14:26 | 47.67083 | 9.51498 | 1357 ft | 20 kts | 58° |
| 2026-04-27 14:26 | 47.67157 | 9.51684 | 1359 ft | 24 kts | 61° |
| 2026-04-27 14:26 | 47.67236 | 9.51889 | 1362 ft | 15 kts | 57° |
| 2026-04-27 14:27 | 47.67243 | 9.51954 | 1362 ft | 4 kts | 142° |
| 2026-04-27 14:27 | 47.67227 | 9.52008 | 1362 ft | 2 kts | 161° |
| 2026-04-27 14:27 | 47.67216 | 9.52003 | 1362 ft | 0 kts | 220° |